sensor_id;sensor_type;location;lat;lon;timestamp;temperature;humidity
15834;DHT22;8017;50.812;4.934;2023-02-28T00:01:40;0.40;99.90
15834;DHT22;8017;50.812;4.934;2023-02-28T00:04:43;0.30;99.90
15834;DHT22;8017;50.812;4.934;2023-02-28T00:07:46;0.30;99.90
15834;DHT22;8017;50.812;4.934;2023-02-28T00:10:48;0.30;99.90
15834;DHT22;8017;50.812;4.934;2023-02-28T00:13:50;0.20;99.90
15834;DHT22;8017;50.812;4.934;2023-02-28T00:16:51;0.20;99.90
15834;DHT22;8017;50.812;4.934;2023-02-28T00:19:55;0.20;99.90
15834;DHT22;8017;50.812;4.934;2023-02-28T00:22:57;0.20;99.90
15834;DHT22;8017;50.812;4.934;2023-02-28T00:25:59;0.20;99.90
15834;DHT22;8017;50.812;4.934;2023-02-28T00:29:01;0.20;99.90
15834;DHT22;8017;50.812;4.934;2023-02-28T00:32:03;0.10;99.90
15834;DHT22;8017;50.812;4.934;2023-02-28T00:35:08;0.10;99.90
15834;DHT22;8017;50.812;4.934;2023-02-28T00:38:10;0.10;99.90
15834;DHT22;8017;50.812;4.934;2023-02-28T00:41:12;0.00;99.90
15834;DHT22;8017;50.812;4.934;2023-02-28T00:44:14;0.00;99.90
15834;DHT22;8017;50.812;4.934;2023-02-28T00:47:16;0.00;99.90
15834;DHT22;8017;50.812;4.934;2023-02-28T00:50:19;0.00;99.90
15834;DHT22;8017;50.812;4.934;2023-02-28T00:53:21;-0.10;99.90
15834;DHT22;8017;50.812;4.934;2023-02-28T00:56:23;-0.10;99.90
15834;DHT22;8017;50.812;4.934;2023-02-28T00:59:25;-0.20;99.90
15834;DHT22;8017;50.812;4.934;2023-02-28T01:02:27;-0.30;99.90
15834;DHT22;8017;50.812;4.934;2023-02-28T01:05:30;-0.30;99.90
15834;DHT22;8017;50.812;4.934;2023-02-28T01:08:32;-0.30;99.90
15834;DHT22;8017;50.812;4.934;2023-02-28T01:11:34;-0.40;99.90
15834;DHT22;8017;50.812;4.934;2023-02-28T01:14:37;-0.40;99.90
15834;DHT22;8017;50.812;4.934;2023-02-28T01:17:39;-0.50;99.90
15834;DHT22;8017;50.812;4.934;2023-02-28T01:20:42;-0.50;99.90
15834;DHT22;8017;50.812;4.934;2023-02-28T01:23:45;-0.50;99.90
15834;DHT22;8017;50.812;4.934;2023-02-28T01:26:47;-0.50;99.90
15834;DHT22;8017;50.812;4.934;2023-02-28T01:29:50;-0.50;99.90
15834;DHT22;8017;50.812;4.934;2023-02-28T01:32:52;-0.50;99.90
15834;DHT22;8017;50.812;4.934;2023-02-28T01:35:59;-0.50;99.90
15834;DHT22;8017;50.812;4.934;2023-02-28T01:39:02;-0.50;99.90
15834;DHT22;8017;50.812;4.934;2023-02-28T01:42:04;-0.50;99.90
15834;DHT22;8017;50.812;4.934;2023-02-28T01:45:22;-0.60;99.90
15834;DHT22;8017;50.812;4.934;2023-02-28T01:48:26;-0.50;99.90
15834;DHT22;8017;50.812;4.934;2023-02-28T01:51:33;-0.50;99.90
15834;DHT22;8017;50.812;4.934;2023-02-28T01:54:36;-0.70;99.90
15834;DHT22;8017;50.812;4.934;2023-02-28T01:57:41;-0.70;99.90
15834;DHT22;8017;50.812;4.934;2023-02-28T02:00:43;-0.70;99.90
15834;DHT22;8017;50.812;4.934;2023-02-28T02:03:45;-0.70;99.90
15834;DHT22;8017;50.812;4.934;2023-02-28T02:06:49;-0.80;99.90
15834;DHT22;8017;50.812;4.934;2023-02-28T02:09:59;-0.80;99.90
15834;DHT22;8017;50.812;4.934;2023-02-28T02:13:20;-0.80;99.90
15834;DHT22;8017;50.812;4.934;2023-02-28T02:16:34;-0.80;99.90
15834;DHT22;8017;50.812;4.934;2023-02-28T02:26:58;-0.90;99.90
15834;DHT22;8017;50.812;4.934;2023-02-28T02:30:43;-1.00;99.90
15834;DHT22;8017;50.812;4.934;2023-02-28T02:34:10;-1.00;99.90
15834;DHT22;8017;50.812;4.934;2023-02-28T02:37:31;-1.00;99.90
15834;DHT22;8017;50.812;4.934;2023-02-28T02:40:43;-1.00;99.90
15834;DHT22;8017;50.812;4.934;2023-02-28T02:43:49;-1.00;99.90
15834;DHT22;8017;50.812;4.934;2023-02-28T02:46:55;-1.10;99.90
15834;DHT22;8017;50.812;4.934;2023-02-28T02:50:05;-1.10;99.90
15834;DHT22;8017;50.812;4.934;2023-02-28T02:53:09;-1.10;99.90
15834;DHT22;8017;50.812;4.934;2023-02-28T02:56:13;-1.20;99.90
15834;DHT22;8017;50.812;4.934;2023-02-28T02:59:18;-1.20;99.90
15834;DHT22;8017;50.812;4.934;2023-02-28T03:02:22;-1.20;99.90
15834;DHT22;8017;50.812;4.934;2023-02-28T03:05:32;-1.30;99.90
15834;DHT22;8017;50.812;4.934;2023-02-28T03:08:37;-1.30;99.90
15834;DHT22;8017;50.812;4.934;2023-02-28T03:11:40;-1.30;99.90
15834;DHT22;8017;50.812;4.934;2023-02-28T03:14:52;-1.30;99.90
15834;DHT22;8017;50.812;4.934;2023-02-28T03:18:02;-1.30;99.90
15834;DHT22;8017;50.812;4.934;2023-02-28T03:21:13;-1.40;99.90
15834;DHT22;8017;50.812;4.934;2023-02-28T03:24:21;-1.40;99.90
15834;DHT22;8017;50.812;4.934;2023-02-28T03:27:29;-1.40;99.90
15834;DHT22;8017;50.812;4.934;2023-02-28T03:30:36;-1.50;99.90
15834;DHT22;8017;50.812;4.934;2023-02-28T03:33:43;-1.50;99.90
15834;DHT22;8017;50.812;4.934;2023-02-28T03:36:49;-1.50;99.90
15834;DHT22;8017;50.812;4.934;2023-02-28T03:39:56;-1.60;99.90
15834;DHT22;8017;50.812;4.934;2023-02-28T03:43:02;-1.80;99.90
15834;DHT22;8017;50.812;4.934;2023-02-28T03:46:08;-2.00;99.90
15834;DHT22;8017;50.812;4.934;2023-02-28T03:49:16;-1.90;99.90
15834;DHT22;8017;50.812;4.934;2023-02-28T03:52:24;-1.90;99.90
15834;DHT22;8017;50.812;4.934;2023-02-28T03:55:30;-1.70;99.90
15834;DHT22;8017;50.812;4.934;2023-02-28T03:58:39;-1.60;99.90
15834;DHT22;8017;50.812;4.934;2023-02-28T04:01:43;-1.50;99.90
15834;DHT22;8017;50.812;4.934;2023-02-28T04:04:46;-1.30;99.90
15834;DHT22;8017;50.812;4.934;2023-02-28T04:07:50;-1.10;99.90
15834;DHT22;8017;50.812;4.934;2023-02-28T04:10:55;-1.00;99.90
15834;DHT22;8017;50.812;4.934;2023-02-28T04:13:59;-0.90;99.90
15834;DHT22;8017;50.812;4.934;2023-02-28T04:17:01;-0.90;99.90
15834;DHT22;8017;50.812;4.934;2023-02-28T04:20:03;-0.80;99.90
15834;DHT22;8017;50.812;4.934;2023-02-28T04:23:11;-0.80;99.90
15834;DHT22;8017;50.812;4.934;2023-02-28T04:26:13;-0.80;99.90
15834;DHT22;8017;50.812;4.934;2023-02-28T04:29:22;-0.70;99.90
15834;DHT22;8017;50.812;4.934;2023-02-28T04:32:24;-0.70;99.90
15834;DHT22;8017;50.812;4.934;2023-02-28T04:35:26;-0.60;99.90
15834;DHT22;8017;50.812;4.934;2023-02-28T04:38:29;-0.50;99.90
15834;DHT22;8017;50.812;4.934;2023-02-28T04:41:31;-0.40;99.90
15834;DHT22;8017;50.812;4.934;2023-02-28T04:44:33;-0.50;99.90
15834;DHT22;8017;50.812;4.934;2023-02-28T04:47:35;-0.50;99.90
15834;DHT22;8017;50.812;4.934;2023-02-28T04:50:37;-0.50;99.90
15834;DHT22;8017;50.812;4.934;2023-02-28T04:53:41;-0.50;99.90
15834;DHT22;8017;50.812;4.934;2023-02-28T04:56:43;-0.60;99.90
15834;DHT22;8017;50.812;4.934;2023-02-28T04:59:45;-0.70;99.90
15834;DHT22;8017;50.812;4.934;2023-02-28T05:02:47;-0.90;99.90
15834;DHT22;8017;50.812;4.934;2023-02-28T05:05:49;-1.00;99.90
15834;DHT22;8017;50.812;4.934;2023-02-28T05:08:53;-1.10;99.90
15834;DHT22;8017;50.812;4.934;2023-02-28T05:11:55;-1.20;99.90
15834;DHT22;8017;50.812;4.934;2023-02-28T05:14:57;-1.40;99.90
15834;DHT22;8017;50.812;4.934;2023-02-28T05:17:59;-1.50;99.90
15834;DHT22;8017;50.812;4.934;2023-02-28T05:21:01;-1.60;99.90
15834;DHT22;8017;50.812;4.934;2023-02-28T05:24:07;-1.50;99.90
15834;DHT22;8017;50.812;4.934;2023-02-28T05:27:10;-1.50;99.90
15834;DHT22;8017;50.812;4.934;2023-02-28T05:30:13;-1.60;99.90
15834;DHT22;8017;50.812;4.934;2023-02-28T05:33:15;-1.60;99.90
15834;DHT22;8017;50.812;4.934;2023-02-28T05:36:17;-1.70;99.90
15834;DHT22;8017;50.812;4.934;2023-02-28T05:39:21;-1.70;99.90
15834;DHT22;8017;50.812;4.934;2023-02-28T05:42:23;-1.70;99.90
15834;DHT22;8017;50.812;4.934;2023-02-28T05:45:25;-1.80;99.90
15834;DHT22;8017;50.812;4.934;2023-02-28T05:48:27;-1.70;99.90
15834;DHT22;8017;50.812;4.934;2023-02-28T05:51:29;-1.80;99.90
15834;DHT22;8017;50.812;4.934;2023-02-28T05:54:32;-1.80;99.90
15834;DHT22;8017;50.812;4.934;2023-02-28T05:57:34;-1.80;99.90
15834;DHT22;8017;50.812;4.934;2023-02-28T06:00:36;-1.80;99.90
15834;DHT22;8017;50.812;4.934;2023-02-28T06:03:38;-1.80;99.90
15834;DHT22;8017;50.812;4.934;2023-02-28T06:06:40;-1.80;99.90
15834;DHT22;8017;50.812;4.934;2023-02-28T06:09:43;-1.90;99.90
15834;DHT22;8017;50.812;4.934;2023-02-28T06:12:45;-2.10;99.90
15834;DHT22;8017;50.812;4.934;2023-02-28T06:15:47;-2.20;99.90
15834;DHT22;8017;50.812;4.934;2023-02-28T06:18:49;-2.20;99.90
15834;DHT22;8017;50.812;4.934;2023-02-28T06:21:51;-2.20;99.90
15834;DHT22;8017;50.812;4.934;2023-02-28T06:24:55;-2.20;99.90
15834;DHT22;8017;50.812;4.934;2023-02-28T06:27:58;-2.10;99.90
15834;DHT22;8017;50.812;4.934;2023-02-28T06:31:04;-2.10;99.90
15834;DHT22;8017;50.812;4.934;2023-02-28T06:34:07;-2.10;99.90
15834;DHT22;8017;50.812;4.934;2023-02-28T06:37:08;-2.10;99.90
15834;DHT22;8017;50.812;4.934;2023-02-28T06:40:12;-2.00;99.90
15834;DHT22;8017;50.812;4.934;2023-02-28T06:43:14;-2.10;99.90
15834;DHT22;8017;50.812;4.934;2023-02-28T06:46:16;-2.00;99.90
15834;DHT22;8017;50.812;4.934;2023-02-28T06:49:18;-2.00;99.90
15834;DHT22;8017;50.812;4.934;2023-02-28T06:52:20;-2.00;99.90
15834;DHT22;8017;50.812;4.934;2023-02-28T06:55:24;-2.00;99.90
15834;DHT22;8017;50.812;4.934;2023-02-28T06:58:25;-1.90;99.90
15834;DHT22;8017;50.812;4.934;2023-02-28T07:01:27;-1.70;99.90
15834;DHT22;8017;50.812;4.934;2023-02-28T07:04:29;-1.70;99.90
15834;DHT22;8017;50.812;4.934;2023-02-28T07:07:31;-1.60;99.90
15834;DHT22;8017;50.812;4.934;2023-02-28T07:10:37;-1.50;99.90
15834;DHT22;8017;50.812;4.934;2023-02-28T07:13:39;-1.40;99.90
15834;DHT22;8017;50.812;4.934;2023-02-28T07:16:41;-1.40;99.90
15834;DHT22;8017;50.812;4.934;2023-02-28T07:19:43;-1.20;99.90
15834;DHT22;8017;50.812;4.934;2023-02-28T07:22:45;-1.30;99.90
15834;DHT22;8017;50.812;4.934;2023-02-28T07:25:53;-1.30;99.90
15834;DHT22;8017;50.812;4.934;2023-02-28T07:28:55;-1.20;99.90
15834;DHT22;8017;50.812;4.934;2023-02-28T07:31:57;-1.10;99.90
15834;DHT22;8017;50.812;4.934;2023-02-28T07:34:59;-1.00;99.90
15834;DHT22;8017;50.812;4.934;2023-02-28T07:38:01;-0.90;99.90
15834;DHT22;8017;50.812;4.934;2023-02-28T07:41:05;-0.80;99.90
15834;DHT22;8017;50.812;4.934;2023-02-28T07:44:08;-0.80;99.90
15834;DHT22;8017;50.812;4.934;2023-02-28T07:47:10;-0.70;99.90
15834;DHT22;8017;50.812;4.934;2023-02-28T07:50:14;-0.70;99.90
15834;DHT22;8017;50.812;4.934;2023-02-28T07:53:16;-0.60;99.90
15834;DHT22;8017;50.812;4.934;2023-02-28T07:56:19;-0.50;99.90
15834;DHT22;8017;50.812;4.934;2023-02-28T07:59:21;-0.40;99.90
15834;DHT22;8017;50.812;4.934;2023-02-28T08:02:24;-0.40;99.90
15834;DHT22;8017;50.812;4.934;2023-02-28T08:05:26;-0.30;99.90
15834;DHT22;8017;50.812;4.934;2023-02-28T08:08:28;-0.20;99.90
15834;DHT22;8017;50.812;4.934;2023-02-28T08:11:33;-0.20;99.90
15834;DHT22;8017;50.812;4.934;2023-02-28T08:14:35;-0.10;99.90
15834;DHT22;8017;50.812;4.934;2023-02-28T08:17:37;-0.10;99.90
15834;DHT22;8017;50.812;4.934;2023-02-28T08:20:39;0.00;99.90
15834;DHT22;8017;50.812;4.934;2023-02-28T08:23:41;0.00;99.90
15834;DHT22;8017;50.812;4.934;2023-02-28T08:26:44;0.10;99.90
15834;DHT22;8017;50.812;4.934;2023-02-28T08:29:46;0.20;99.90
15834;DHT22;8017;50.812;4.934;2023-02-28T08:32:48;0.30;99.90
15834;DHT22;8017;50.812;4.934;2023-02-28T08:35:53;0.30;99.90
15834;DHT22;8017;50.812;4.934;2023-02-28T08:38:56;0.40;99.90
15834;DHT22;8017;50.812;4.934;2023-02-28T08:42:01;0.40;99.90
15834;DHT22;8017;50.812;4.934;2023-02-28T08:45:04;0.50;99.90
15834;DHT22;8017;50.812;4.934;2023-02-28T08:48:06;0.60;99.90
15834;DHT22;8017;50.812;4.934;2023-02-28T08:51:09;0.70;99.90
15834;DHT22;8017;50.812;4.934;2023-02-28T08:54:11;0.80;99.90
15834;DHT22;8017;50.812;4.934;2023-02-28T08:57:17;0.80;99.90
15834;DHT22;8017;50.812;4.934;2023-02-28T09:00:20;0.90;99.90
15834;DHT22;8017;50.812;4.934;2023-02-28T09:03:23;0.90;99.90
15834;DHT22;8017;50.812;4.934;2023-02-28T09:06:26;1.00;99.90
15834;DHT22;8017;50.812;4.934;2023-02-28T09:09:28;1.10;99.90
15834;DHT22;8017;50.812;4.934;2023-02-28T09:12:34;1.10;99.90
15834;DHT22;8017;50.812;4.934;2023-02-28T09:15:37;1.20;99.90
15834;DHT22;8017;50.812;4.934;2023-02-28T09:18:39;1.30;99.90
15834;DHT22;8017;50.812;4.934;2023-02-28T09:21:41;1.40;99.90
15834;DHT22;8017;50.812;4.934;2023-02-28T09:24:43;1.40;99.90
15834;DHT22;8017;50.812;4.934;2023-02-28T09:27:47;1.40;99.90
15834;DHT22;8017;50.812;4.934;2023-02-28T09:30:50;1.40;99.90
15834;DHT22;8017;50.812;4.934;2023-02-28T09:33:54;1.50;99.90
15834;DHT22;8017;50.812;4.934;2023-02-28T09:36:57;1.60;99.90
15834;DHT22;8017;50.812;4.934;2023-02-28T09:39:59;1.60;99.90
15834;DHT22;8017;50.812;4.934;2023-02-28T09:43:02;1.60;99.90
15834;DHT22;8017;50.812;4.934;2023-02-28T09:46:11;1.70;99.90
15834;DHT22;8017;50.812;4.934;2023-02-28T09:49:18;1.80;99.90
15834;DHT22;8017;50.812;4.934;2023-02-28T09:52:24;1.80;99.90
15834;DHT22;8017;50.812;4.934;2023-02-28T09:55:31;1.80;99.90
15834;DHT22;8017;50.812;4.934;2023-02-28T09:58:41;2.00;99.90
15834;DHT22;8017;50.812;4.934;2023-02-28T10:01:50;2.00;99.90
15834;DHT22;8017;50.812;4.934;2023-02-28T10:04:57;2.10;99.90
15834;DHT22;8017;50.812;4.934;2023-02-28T10:08:05;2.20;99.90
15834;DHT22;8017;50.812;4.934;2023-02-28T10:11:12;2.20;99.90
15834;DHT22;8017;50.812;4.934;2023-02-28T10:14:19;2.20;99.90
15834;DHT22;8017;50.812;4.934;2023-02-28T10:17:25;2.20;99.90
15834;DHT22;8017;50.812;4.934;2023-02-28T10:20:30;2.40;99.90
15834;DHT22;8017;50.812;4.934;2023-02-28T10:23:35;2.50;99.90
15834;DHT22;8017;50.812;4.934;2023-02-28T10:26:39;2.50;99.90
15834;DHT22;8017;50.812;4.934;2023-02-28T10:29:46;2.60;99.90
15834;DHT22;8017;50.812;4.934;2023-02-28T10:32:50;2.70;99.90
15834;DHT22;8017;50.812;4.934;2023-02-28T10:35:54;2.80;99.90
15834;DHT22;8017;50.812;4.934;2023-02-28T10:38:56;2.90;99.90
15834;DHT22;8017;50.812;4.934;2023-02-28T10:41:58;3.00;99.90
15834;DHT22;8017;50.812;4.934;2023-02-28T10:45:11;3.10;99.90
15834;DHT22;8017;50.812;4.934;2023-02-28T10:48:29;3.20;99.90
15834;DHT22;8017;50.812;4.934;2023-02-28T10:51:37;3.20;99.90
15834;DHT22;8017;50.812;4.934;2023-02-28T10:54:39;3.20;99.90
15834;DHT22;8017;50.812;4.934;2023-02-28T10:57:41;3.40;99.90
15834;DHT22;8017;50.812;4.934;2023-02-28T11:00:46;3.50;99.90
15834;DHT22;8017;50.812;4.934;2023-02-28T11:03:48;3.60;99.90
15834;DHT22;8017;50.812;4.934;2023-02-28T11:06:57;3.80;99.90
15834;DHT22;8017;50.812;4.934;2023-02-28T11:09:59;4.00;99.90
15834;DHT22;8017;50.812;4.934;2023-02-28T11:13:02;4.10;99.90
15834;DHT22;8017;50.812;4.934;2023-02-28T11:16:07;4.20;99.90
15834;DHT22;8017;50.812;4.934;2023-02-28T11:19:19;4.50;99.90
15834;DHT22;8017;50.812;4.934;2023-02-28T11:22:24;4.60;99.90
15834;DHT22;8017;50.812;4.934;2023-02-28T11:25:30;4.80;99.90
15834;DHT22;8017;50.812;4.934;2023-02-28T11:28:35;4.80;99.90
15834;DHT22;8017;50.812;4.934;2023-02-28T11:31:38;4.80;99.90
15834;DHT22;8017;50.812;4.934;2023-02-28T11:34:41;5.00;99.90
15834;DHT22;8017;50.812;4.934;2023-02-28T11:37:43;4.90;99.90
15834;DHT22;8017;50.812;4.934;2023-02-28T11:40:49;4.80;99.90
15834;DHT22;8017;50.812;4.934;2023-02-28T11:44:06;4.90;99.90
15834;DHT22;8017;50.812;4.934;2023-02-28T11:47:17;4.70;99.90
15834;DHT22;8017;50.812;4.934;2023-02-28T11:50:37;4.30;99.90
15834;DHT22;8017;50.812;4.934;2023-02-28T11:53:59;4.20;99.90
15834;DHT22;8017;50.812;4.934;2023-02-28T11:57:15;4.20;99.90
15834;DHT22;8017;50.812;4.934;2023-02-28T12:00:33;4.30;99.90
15834;DHT22;8017;50.812;4.934;2023-02-28T12:03:47;4.40;99.90
15834;DHT22;8017;50.812;4.934;2023-02-28T12:06:57;4.40;99.90
15834;DHT22;8017;50.812;4.934;2023-02-28T12:10:06;4.40;99.90
15834;DHT22;8017;50.812;4.934;2023-02-28T12:13:18;4.50;99.90
15834;DHT22;8017;50.812;4.934;2023-02-28T12:16:44;4.60;99.90
15834;DHT22;8017;50.812;4.934;2023-02-28T12:19:52;4.40;99.90
15834;DHT22;8017;50.812;4.934;2023-02-28T12:23:19;4.50;99.90
15834;DHT22;8017;50.812;4.934;2023-02-28T12:26:29;4.50;99.90
15834;DHT22;8017;50.812;4.934;2023-02-28T12:29:39;4.50;99.90
15834;DHT22;8017;50.812;4.934;2023-02-28T12:32:47;4.30;99.90
15834;DHT22;8017;50.812;4.934;2023-02-28T12:35:55;4.40;99.90
15834;DHT22;8017;50.812;4.934;2023-02-28T12:39:00;4.30;99.90
15834;DHT22;8017;50.812;4.934;2023-02-28T12:42:09;4.30;99.90
15834;DHT22;8017;50.812;4.934;2023-02-28T12:45:17;4.20;99.90
15834;DHT22;8017;50.812;4.934;2023-02-28T12:48:24;4.20;99.90
15834;DHT22;8017;50.812;4.934;2023-02-28T12:51:29;4.20;99.90
15834;DHT22;8017;50.812;4.934;2023-02-28T12:54:35;4.20;99.90
15834;DHT22;8017;50.812;4.934;2023-02-28T12:57:42;4.30;99.90
15834;DHT22;8017;50.812;4.934;2023-02-28T13:01:04;4.30;99.90
15834;DHT22;8017;50.812;4.934;2023-02-28T13:11:38;4.40;99.90
15834;DHT22;8017;50.812;4.934;2023-02-28T13:14:40;4.30;99.90
15834;DHT22;8017;50.812;4.934;2023-02-28T13:17:48;4.40;99.90
15834;DHT22;8017;50.812;4.934;2023-02-28T13:20:50;4.40;99.90
15834;DHT22;8017;50.812;4.934;2023-02-28T13:24:01;4.40;99.90
15834;DHT22;8017;50.812;4.934;2023-02-28T13:27:33;4.50;99.90
15834;DHT22;8017;50.812;4.934;2023-02-28T13:31:02;4.40;99.90
15834;DHT22;8017;50.812;4.934;2023-02-28T13:34:12;4.30;99.90
15834;DHT22;8017;50.812;4.934;2023-02-28T13:37:35;4.30;99.90
15834;DHT22;8017;50.812;4.934;2023-02-28T13:40:38;4.30;99.90
15834;DHT22;8017;50.812;4.934;2023-02-28T13:44:00;4.30;99.90
15834;DHT22;8017;50.812;4.934;2023-02-28T13:47:28;4.40;99.90
15834;DHT22;8017;50.812;4.934;2023-02-28T13:50:33;4.40;99.90
15834;DHT22;8017;50.812;4.934;2023-02-28T13:53:59;4.40;99.90
15834;DHT22;8017;50.812;4.934;2023-02-28T13:57:17;4.50;99.90
15834;DHT22;8017;50.812;4.934;2023-02-28T14:00:33;4.50;99.90
15834;DHT22;8017;50.812;4.934;2023-02-28T14:03:46;4.50;99.90
15834;DHT22;8017;50.812;4.934;2023-02-28T14:06:52;4.40;99.90
15834;DHT22;8017;50.812;4.934;2023-02-28T14:09:59;4.40;99.90
15834;DHT22;8017;50.812;4.934;2023-02-28T14:16:39;4.40;99.90
15834;DHT22;8017;50.812;4.934;2023-02-28T14:19:44;4.40;99.90
15834;DHT22;8017;50.812;4.934;2023-02-28T14:22:54;4.40;99.90
15834;DHT22;8017;50.812;4.934;2023-02-28T14:26:04;4.60;99.90
15834;DHT22;8017;50.812;4.934;2023-02-28T14:29:22;4.60;99.90
15834;DHT22;8017;50.812;4.934;2023-02-28T14:32:35;4.50;99.90
15834;DHT22;8017;50.812;4.934;2023-02-28T14:35:49;4.60;99.90
15834;DHT22;8017;50.812;4.934;2023-02-28T14:38:56;4.60;99.90
15834;DHT22;8017;50.812;4.934;2023-02-28T14:41:58;4.60;99.90
15834;DHT22;8017;50.812;4.934;2023-02-28T14:45:06;4.50;99.90
15834;DHT22;8017;50.812;4.934;2023-02-28T14:48:10;4.50;99.90
15834;DHT22;8017;50.812;4.934;2023-02-28T14:51:13;4.60;99.90
15834;DHT22;8017;50.812;4.934;2023-02-28T14:54:21;4.60;99.90
15834;DHT22;8017;50.812;4.934;2023-02-28T14:57:27;4.60;99.90
15834;DHT22;8017;50.812;4.934;2023-02-28T15:00:30;4.60;99.90
15834;DHT22;8017;50.812;4.934;2023-02-28T15:03:35;4.70;99.90
15834;DHT22;8017;50.812;4.934;2023-02-28T15:06:38;4.70;99.90
15834;DHT22;8017;50.812;4.934;2023-02-28T15:09:40;4.60;99.90
15834;DHT22;8017;50.812;4.934;2023-02-28T15:12:48;4.60;99.90
15834;DHT22;8017;50.812;4.934;2023-02-28T15:15:53;4.60;99.90
15834;DHT22;8017;50.812;4.934;2023-02-28T15:18:59;4.60;99.90
15834;DHT22;8017;50.812;4.934;2023-02-28T15:22:05;4.50;99.90
15834;DHT22;8017;50.812;4.934;2023-02-28T15:25:09;4.50;99.90
15834;DHT22;8017;50.812;4.934;2023-02-28T15:28:17;4.60;99.90
15834;DHT22;8017;50.812;4.934;2023-02-28T15:31:23;4.60;99.90
15834;DHT22;8017;50.812;4.934;2023-02-28T15:34:34;4.60;99.90
15834;DHT22;8017;50.812;4.934;2023-02-28T15:37:45;4.60;99.90
15834;DHT22;8017;50.812;4.934;2023-02-28T15:40:51;4.60;99.90
15834;DHT22;8017;50.812;4.934;2023-02-28T15:44:16;4.60;99.90
15834;DHT22;8017;50.812;4.934;2023-02-28T15:47:19;4.50;99.90
15834;DHT22;8017;50.812;4.934;2023-02-28T15:50:23;4.40;99.90
15834;DHT22;8017;50.812;4.934;2023-02-28T15:53:29;4.40;99.90
15834;DHT22;8017;50.812;4.934;2023-02-28T15:56:33;4.30;99.90
15834;DHT22;8017;50.812;4.934;2023-02-28T15:59:37;4.30;99.90
15834;DHT22;8017;50.812;4.934;2023-02-28T16:02:40;4.20;99.90
15834;DHT22;8017;50.812;4.934;2023-02-28T16:05:43;4.30;99.90
15834;DHT22;8017;50.812;4.934;2023-02-28T16:08:45;4.30;99.90
15834;DHT22;8017;50.812;4.934;2023-02-28T16:11:50;4.30;99.90
15834;DHT22;8017;50.812;4.934;2023-02-28T16:14:57;4.30;99.90
15834;DHT22;8017;50.812;4.934;2023-02-28T16:17:59;4.30;99.90
15834;DHT22;8017;50.812;4.934;2023-02-28T16:21:03;4.30;99.90
15834;DHT22;8017;50.812;4.934;2023-02-28T16:24:05;4.20;99.90
15834;DHT22;8017;50.812;4.934;2023-02-28T16:27:16;4.20;99.90
15834;DHT22;8017;50.812;4.934;2023-02-28T16:30:21;4.00;99.90
15834;DHT22;8017;50.812;4.934;2023-02-28T16:33:23;4.00;99.90
15834;DHT22;8017;50.812;4.934;2023-02-28T16:36:27;3.90;99.90
15834;DHT22;8017;50.812;4.934;2023-02-28T16:39:30;4.00;99.90
15834;DHT22;8017;50.812;4.934;2023-02-28T16:42:32;3.90;99.90
15834;DHT22;8017;50.812;4.934;2023-02-28T16:45:34;3.90;99.90
15834;DHT22;8017;50.812;4.934;2023-02-28T16:48:36;3.80;99.90
15834;DHT22;8017;50.812;4.934;2023-02-28T16:51:41;3.80;99.90
15834;DHT22;8017;50.812;4.934;2023-02-28T16:54:43;3.70;99.90
15834;DHT22;8017;50.812;4.934;2023-02-28T16:57:47;3.70;99.90
15834;DHT22;8017;50.812;4.934;2023-02-28T17:00:50;3.70;99.90
15834;DHT22;8017;50.812;4.934;2023-02-28T17:03:53;3.60;99.90
15834;DHT22;8017;50.812;4.934;2023-02-28T17:06:56;3.60;99.90
15834;DHT22;8017;50.812;4.934;2023-02-28T17:09:59;3.40;99.90
15834;DHT22;8017;50.812;4.934;2023-02-28T17:13:08;3.30;99.90
15834;DHT22;8017;50.812;4.934;2023-02-28T17:16:17;3.30;99.90
15834;DHT22;8017;50.812;4.934;2023-02-28T17:19:21;3.20;99.90
15834;DHT22;8017;50.812;4.934;2023-02-28T17:22:25;3.10;99.90
15834;DHT22;8017;50.812;4.934;2023-02-28T17:25:27;3.00;99.90
15834;DHT22;8017;50.812;4.934;2023-02-28T17:28:29;2.90;99.90
15834;DHT22;8017;50.812;4.934;2023-02-28T17:31:31;2.80;99.90
15834;DHT22;8017;50.812;4.934;2023-02-28T17:34:33;2.70;99.90
15834;DHT22;8017;50.812;4.934;2023-02-28T17:37:36;2.70;99.90
15834;DHT22;8017;50.812;4.934;2023-02-28T17:40:38;2.70;99.90
15834;DHT22;8017;50.812;4.934;2023-02-28T17:43:40;2.60;99.90
15834;DHT22;8017;50.812;4.934;2023-02-28T17:46:43;2.60;99.90
15834;DHT22;8017;50.812;4.934;2023-02-28T17:49:45;2.60;99.90
15834;DHT22;8017;50.812;4.934;2023-02-28T17:52:49;2.50;99.90
15834;DHT22;8017;50.812;4.934;2023-02-28T17:55:51;2.50;99.90
15834;DHT22;8017;50.812;4.934;2023-02-28T17:58:54;2.40;99.90
15834;DHT22;8017;50.812;4.934;2023-02-28T18:01:56;2.30;99.90
15834;DHT22;8017;50.812;4.934;2023-02-28T18:04:58;2.30;99.90
15834;DHT22;8017;50.812;4.934;2023-02-28T18:08:02;2.20;99.90
15834;DHT22;8017;50.812;4.934;2023-02-28T18:11:04;2.10;99.90
15834;DHT22;8017;50.812;4.934;2023-02-28T18:14:06;2.00;99.90
15834;DHT22;8017;50.812;4.934;2023-02-28T18:17:09;2.00;99.90
15834;DHT22;8017;50.812;4.934;2023-02-28T18:20:12;1.90;99.90
15834;DHT22;8017;50.812;4.934;2023-02-28T18:23:16;1.90;99.90
15834;DHT22;8017;50.812;4.934;2023-02-28T18:26:20;1.80;99.90
15834;DHT22;8017;50.812;4.934;2023-02-28T18:29:23;1.70;99.90
15834;DHT22;8017;50.812;4.934;2023-02-28T18:32:25;1.70;99.90
15834;DHT22;8017;50.812;4.934;2023-02-28T18:35:28;1.60;99.90
15834;DHT22;8017;50.812;4.934;2023-02-28T18:38:38;1.60;99.90
15834;DHT22;8017;50.812;4.934;2023-02-28T18:41:40;1.50;99.90
15834;DHT22;8017;50.812;4.934;2023-02-28T18:44:42;1.50;99.90
15834;DHT22;8017;50.812;4.934;2023-02-28T18:47:44;1.60;99.90
15834;DHT22;8017;50.812;4.934;2023-02-28T18:50:46;1.50;99.90
15834;DHT22;8017;50.812;4.934;2023-02-28T18:53:50;1.50;99.90
15834;DHT22;8017;50.812;4.934;2023-02-28T18:56:52;1.50;99.90
15834;DHT22;8017;50.812;4.934;2023-02-28T18:59:54;1.40;99.90
15834;DHT22;8017;50.812;4.934;2023-02-28T19:02:56;1.40;99.90
15834;DHT22;8017;50.812;4.934;2023-02-28T19:05:59;1.40;99.90
15834;DHT22;8017;50.812;4.934;2023-02-28T19:09:07;1.40;99.90
15834;DHT22;8017;50.812;4.934;2023-02-28T19:12:10;1.40;99.90
15834;DHT22;8017;50.812;4.934;2023-02-28T19:15:12;1.40;99.90
15834;DHT22;8017;50.812;4.934;2023-02-28T19:18:14;1.40;99.90
15834;DHT22;8017;50.812;4.934;2023-02-28T19:21:18;1.30;99.90
15834;DHT22;8017;50.812;4.934;2023-02-28T19:24:22;1.30;99.90
15834;DHT22;8017;50.812;4.934;2023-02-28T19:27:24;1.30;99.90
15834;DHT22;8017;50.812;4.934;2023-02-28T19:30:25;1.30;99.90
15834;DHT22;8017;50.812;4.934;2023-02-28T19:33:28;1.30;99.90
15834;DHT22;8017;50.812;4.934;2023-02-28T19:36:30;1.30;99.90
15834;DHT22;8017;50.812;4.934;2023-02-28T19:39:34;1.20;99.90
15834;DHT22;8017;50.812;4.934;2023-02-28T19:42:40;1.20;99.90
15834;DHT22;8017;50.812;4.934;2023-02-28T19:45:42;1.20;99.90
15834;DHT22;8017;50.812;4.934;2023-02-28T19:48:44;1.20;99.90
15834;DHT22;8017;50.812;4.934;2023-02-28T19:51:48;1.20;99.90
15834;DHT22;8017;50.812;4.934;2023-02-28T19:54:51;1.20;99.90
15834;DHT22;8017;50.812;4.934;2023-02-28T19:57:53;1.20;99.90
15834;DHT22;8017;50.812;4.934;2023-02-28T20:00:55;1.10;99.90
15834;DHT22;8017;50.812;4.934;2023-02-28T20:03:57;1.10;99.90
15834;DHT22;8017;50.812;4.934;2023-02-28T20:06:59;1.10;99.90
15834;DHT22;8017;50.812;4.934;2023-02-28T20:10:06;1.00;99.90
15834;DHT22;8017;50.812;4.934;2023-02-28T20:13:08;1.10;99.90
15834;DHT22;8017;50.812;4.934;2023-02-28T20:16:11;1.10;99.90
15834;DHT22;8017;50.812;4.934;2023-02-28T20:19:14;1.10;99.90